Time;durP1;ratioP1;P1;durP2;ratioP2;P2;SDS_P1;SDS_P2;PMS_P1;PMS_P2;Temp;Humidity;BMP_temperature;BMP_pressure;BME280_temperature;BME280_humidity;BME280_pressure;Samples;Min_cycle;Max_cycle;Signal;HPM_P1;HPM_P2
2023/09/30 00:01:33;;;;;;;10.38;6.88;;;;;;;14.33;100.00;102400.28;5220807;28;20029;-72
2023/09/30 00:04:06;;;;;;;9.10;6.97;;;;;;;14.31;100.00;102402.19;5220361;28;20025;-73
2023/09/30 00:06:38;;;;;;;10.68;7.32;;;;;;;14.26;100.00;102400.88;5220495;28;20068;-72
2023/09/30 00:09:11;;;;;;;11.60;7.50;;;;;;;14.34;100.00;102401.13;5223254;28;20033;-72
2023/09/30 00:11:43;;;;;;;12.98;7.82;;;;;;;14.38;100.00;102399.94;5219579;28;20041;-73
2023/09/30 00:14:17;;;;;;;10.93;7.47;;;;;;;14.41;100.00;102409.41;5221572;28;20034;-72
2023/09/30 00:16:49;;;;;;;9.75;7.75;;;;;;;14.40;100.00;102413.00;5222142;28;20033;-72
2023/09/30 00:19:22;;;;;;;11.20;7.85;;;;;;;14.40;100.00;102407.75;5219457;28;20189;-73
2023/09/30 00:21:54;;;;;;;9.80;7.53;;;;;;;14.38;100.00;102418.38;5224151;28;20507;-73
2023/09/30 00:24:26;;;;;;;12.00;7.25;;;;;;;14.40;100.00;102423.56;5222245;28;20037;-72
2023/09/30 00:26:58;;;;;;;11.73;7.68;;;;;;;14.43;100.00;102410.13;5220047;28;20037;-73
2023/09/30 00:29:30;;;;;;;12.65;7.95;;;;;;;14.41;100.00;102407.63;5220537;28;20060;-72
2023/09/30 00:32:02;;;;;;;9.88;7.03;;;;;;;14.41;100.00;102396.22;5224200;28;20041;-72
2023/09/30 00:34:35;;;;;;;10.97;7.77;;;;;;;14.41;100.00;102396.22;5221938;28;20033;-73
2023/09/30 00:37:07;;;;;;;11.35;7.65;;;;;;;14.46;100.00;102410.72;5222443;28;20315;-72
2023/09/30 00:39:39;;;;;;;12.82;7.72;;;;;;;14.41;100.00;102436.63;5222739;28;20030;-73
2023/09/30 00:42:11;;;;;;;10.65;8.18;;;;;;;14.44;100.00;102439.03;5220597;28;20037;-72
2023/09/30 00:44:42;;;;;;;10.95;8.23;;;;;;;14.41;100.00;102430.50;5221406;28;20025;-72
2023/09/30 00:47:17;;;;;;;11.82;8.57;;;;;;;14.36;100.00;102421.16;5223805;28;20048;-73
2023/09/30 00:49:50;;;;;;;9.93;7.85;;;;;;;14.38;100.00;102428.09;5221537;28;20037;-72
2023/09/30 00:52:22;;;;;;;13.90;8.38;;;;;;;14.35;100.00;102408.91;5220966;28;20057;-72
2023/09/30 00:54:55;;;;;;;9.20;7.68;;;;;;;14.40;100.00;102408.56;5219943;28;20747;-73
2023/09/30 00:57:27;;;;;;;13.30;7.75;;;;;;;14.40;100.00;102423.56;5222058;28;20070;-72
2023/09/30 01:00:01;;;;;;;15.82;7.80;;;;;;;14.39;100.00;102429.78;5219814;28;20036;-73
2023/09/30 01:02:34;;;;;;;;;;;;;;;15.22;100.00;102426.88;5221886;28;20041;-73
2023/09/30 01:05:07;;;;;;;12.30;8.00;;;;;;;14.47;100.00;102427.38;5221842;28;19920;-73
2023/09/30 01:07:39;;;;;;;8.88;7.22;;;;;;;14.43;100.00;102428.56;5221929;28;20039;-73
2023/09/30 01:10:11;;;;;;;12.27;7.88;;;;;;;14.39;100.00;102427.13;5220218;28;20033;-72
2023/09/30 01:12:43;;;;;;;12.10;8.13;;;;;;;14.38;100.00;102436.84;5221352;28;20025;-72
2023/09/30 01:15:14;;;;;;;10.70;7.85;;;;;;;14.34;100.00;102432.75;5221800;28;20033;-72
2023/09/30 01:17:46;;;;;;;11.95;8.18;;;;;;;14.32;100.00;102440.81;5219726;28;20463;-73
2023/09/30 01:20:22;;;;;;;10.55;7.97;;;;;;;14.29;100.00;102448.09;5220696;28;20399;-73
2023/09/30 01:22:55;;;;;;;13.27;8.52;;;;;;;14.24;100.00;102464.22;5222951;28;20701;-72
2023/09/30 01:25:27;;;;;;;12.48;7.72;;;;;;;14.25;100.00;102465.94;5222888;28;20046;-72
2023/09/30 01:28:06;;;;;;;11.88;8.07;;;;;;;14.21;100.00;102466.28;5221593;28;20503;-72
2023/09/30 01:30:38;;;;;;;10.90;7.78;;;;;;;14.17;100.00;102478.84;5221741;28;20044;-72
2023/09/30 01:33:09;;;;;;;9.48;7.55;;;;;;;14.17;100.00;102481.50;5227934;28;20032;-72
2023/09/30 01:35:41;;;;;;;10.05;7.72;;;;;;;14.12;100.00;102462.50;5225282;28;20041;-72
2023/09/30 01:38:13;;;;;;;9.73;7.95;;;;;;;14.14;100.00;102473.81;5226573;28;20037;-72
2023/09/30 01:40:46;;;;;;;10.35;8.45;;;;;;;14.08;100.00;102468.97;5224786;28;20036;-72
2023/09/30 01:43:18;;;;;;;10.15;7.57;;;;;;;14.03;100.00;102444.75;5223491;28;20029;-72
2023/09/30 01:45:50;;;;;;;9.30;7.78;;;;;;;14.06;100.00;102453.28;5225699;28;20029;-72
2023/09/30 01:48:22;;;;;;;9.98;7.88;;;;;;;14.08;100.00;102451.34;5224224;28;20501;-72
2023/09/30 01:50:54;;;;;;;10.30;8.25;;;;;;;13.98;100.00;102450.38;5221076;28;20449;-73
2023/09/30 01:53:25;;;;;;;9.00;6.97;;;;;;;13.95;100.00;102447.13;5224976;28;20138;-72
2023/09/30 01:55:58;;;;;;;11.18;8.18;;;;;;;13.93;100.00;102447.22;5224106;28;20033;-72
2023/09/30 01:58:30;;;;;;;10.40;8.00;;;;;;;13.94;100.00;102448.94;5224762;28;20041;-72
2023/09/30 02:01:03;;;;;;;10.65;8.23;;;;;;;13.99;100.00;102459.13;5222171;28;20063;-72
2023/09/30 02:03:36;;;;;;;8.88;7.38;;;;;;;13.96;100.00;102451.44;5223288;28;20041;-72
2023/09/30 02:06:08;;;;;;;11.95;8.45;;;;;;;14.02;100.00;102446.56;5224424;28;20021;-72
2023/09/30 02:08:40;;;;;;;10.80;8.68;;;;;;;14.01;100.00;102460.66;5221610;28;20034;-72
2023/09/30 02:11:13;;;;;;;15.48;9.43;;;;;;;14.01;100.00;102462.47;5227581;28;20041;-72
2023/09/30 02:13:45;;;;;;;12.07;8.27;;;;;;;14.00;100.00;102464.25;5223702;28;20041;-72
2023/09/30 02:16:17;;;;;;;14.13;8.07;;;;;;;13.98;100.00;102462.69;5226369;28;20037;-73
2023/09/30 02:18:50;;;;;;;12.65;9.10;;;;;;;13.95;100.00;102465.56;5225458;28;20048;-73
2023/09/30 02:21:22;;;;;;;9.70;8.18;;;;;;;13.97;100.00;102474.19;5224086;28;20044;-73
2023/09/30 02:23:54;;;;;;;12.63;8.38;;;;;;;13.93;100.00;102468.28;5222754;28;20289;-72
2023/09/30 02:26:29;;;;;;;11.13;8.70;;;;;;;14.02;100.00;102466.81;5225429;28;20045;-73
2023/09/30 02:29:00;;;;;;;11.38;8.65;;;;;;;13.95;100.00;102455.88;5222700;28;20412;-73
2023/09/30 02:31:33;;;;;;;11.23;8.73;;;;;;;13.94;100.00;102448.06;5222387;28;20048;-73
2023/09/30 02:34:05;;;;;;;12.13;8.43;;;;;;;13.92;100.00;102452.63;5224191;28;20496;-72
2023/09/30 02:36:40;;;;;;;10.90;8.30;;;;;;;13.88;100.00;102455.47;5223539;28;20055;-72
2023/09/30 02:39:11;;;;;;;12.27;9.20;;;;;;;13.85;100.00;102460.13;5225502;28;20061;-72
2023/09/30 02:41:44;;;;;;;9.57;8.57;;;;;;;13.90;100.00;102459.78;5242383;28;20145;-72
2023/09/30 02:44:15;;;;;;;11.80;8.13;;;;;;;13.90;100.00;102450.06;5226455;28;20474;-72
2023/09/30 02:46:47;;;;;;;10.13;8.82;;;;;;;13.85;100.00;102445.16;5223811;28;20026;-72
2023/09/30 02:49:19;;;;;;;12.10;8.63;;;;;;;13.80;100.00;102442.03;5223995;28;20041;-72
2023/09/30 02:51:51;;;;;;;11.70;8.02;;;;;;;13.79;100.00;102442.97;5226558;28;20037;-72
2023/09/30 02:54:23;;;;;;;11.07;8.77;;;;;;;13.78;100.00;102443.06;5222275;28;20232;-73
2023/09/30 02:56:55;;;;;;;10.77;8.65;;;;;;;13.85;100.00;102450.41;5223729;28;20044;-73
2023/09/30 02:59:27;;;;;;;12.88;9.15;;;;;;;13.75;100.00;102446.78;5224533;28;20649;-73
2023/09/30 03:01:59;;;;;;;10.95;8.45;;;;;;;13.76;100.00;102453.72;5221317;28;20534;-73
2023/09/30 03:04:30;;;;;;;10.00;8.63;;;;;;;13.78;100.00;102451.81;5223774;28;20034;-73
2023/09/30 03:07:02;;;;;;;12.85;8.95;;;;;;;13.82;100.00;102465.59;5221722;28;20042;-73
2023/09/30 03:09:35;;;;;;;10.52;8.57;;;;;;;13.80;100.00;102463.09;5224659;28;20083;-73
2023/09/30 03:12:08;;;;;;;12.65;9.13;;;;;;;13.84;100.00;102458.44;5223007;28;20037;-73
2023/09/30 03:14:40;;;;;;;;;;;;;;;14.65;100.00;102455.03;5224696;28;20033;-73
2023/09/30 03:17:12;;;;;;;12.95;8.35;;;;;;;13.94;100.00;102463.88;5223737;28;19921;-73
2023/09/30 03:19:44;;;;;;;10.63;8.73;;;;;;;13.80;100.00;102462.25;5223621;28;20368;-72
2023/09/30 03:22:16;;;;;;;11.35;8.57;;;;;;;13.84;100.00;102461.91;5223433;28;20112;-73
2023/09/30 03:24:48;;;;;;;9.82;8.70;;;;;;;13.82;100.00;102452.44;5224235;28;20091;-72
2023/09/30 03:27:20;;;;;;;11.65;9.15;;;;;;;13.79;100.00;102437.72;5221250;28;20033;-72
2023/09/30 03:29:51;;;;;;;12.68;9.45;;;;;;;13.77;100.00;102431.69;5224128;28;20041;-73
2023/09/30 03:32:24;;;;;;;12.60;9.77;;;;;;;13.77;100.00;102425.59;5224573;28;20042;-73
2023/09/30 03:34:59;;;;;;;13.90;10.15;;;;;;;13.81;100.00;102432.31;5221819;28;20380;-72
2023/09/30 03:37:31;;;;;;;12.60;8.90;;;;;;;13.77;100.00;102436.97;5222445;28;20387;-72
2023/09/30 03:40:11;;;;;;;11.40;9.65;;;;;;;13.80;100.00;102431.47;5225862;28;20382;-72
2023/09/30 03:42:44;;;;;;;14.40;10.25;;;;;;;13.75;100.00;102433.63;5221299;28;20057;-72
2023/09/30 03:45:17;;;;;;;14.95;9.75;;;;;;;13.76;100.00;102443.19;5220862;28;20032;-72
2023/09/30 03:47:48;;;;;;;12.82;9.20;;;;;;;13.79;100.00;102450.03;5224034;28;20053;-72
2023/09/30 03:50:23;;;;;;;10.93;8.75;;;;;;;13.73;100.00;102446.06;5224310;28;20038;-72
2023/09/30 03:53:01;;;;;;;11.88;9.40;;;;;;;13.86;100.00;102443.34;5225968;28;20052;-72
2023/09/30 03:55:33;;;;;;;13.38;9.85;;;;;;;13.73;100.00;102455.75;5221510;28;20045;-72
2023/09/30 03:58:05;;;;;;;14.25;9.70;;;;;;;13.69;100.00;102434.06;5232014;28;20124;-72
2023/09/30 04:00:37;;;;;;;16.70;9.52;;;;;;;13.75;100.00;102428.34;5223967;28;20033;-73
2023/09/30 04:03:09;;;;;;;10.85;9.13;;;;;;;13.72;100.00;102436.47;5222456;28;20033;-73
2023/09/30 04:05:41;;;;;;;11.30;9.02;;;;;;;13.76;100.00;102445.00;5220975;28;20032;-72
2023/09/30 04:08:15;;;;;;;12.15;10.18;;;;;;;13.74;100.00;102445.09;5222228;28;20387;-73
2023/09/30 04:10:46;;;;;;;12.52;9.73;;;;;;;13.68;100.00;102436.81;5222582;28;20026;-72
2023/09/30 04:13:20;;;;;;;14.95;10.30;;;;;;;13.73;100.00;102438.16;5222084;28;20565;-72
2023/09/30 04:15:52;;;;;;;12.90;9.90;;;;;;;13.73;100.00;102438.16;5223282;28;20487;-72
2023/09/30 04:18:26;;;;;;;13.82;9.68;;;;;;;13.67;100.00;102441.22;5220127;28;20037;-72
2023/09/30 04:20:57;;;;;;;;;;;;;;;14.49;100.00;102442.19;5222433;28;20034;-72
2023/09/30 04:23:29;;;;;;;12.60;9.05;;;;;;;13.76;100.00;102437.09;5222561;28;19917;-73
2023/09/30 04:26:01;;;;;;;15.48;10.10;;;;;;;13.61;100.00;102431.16;5220403;28;20029;-73
2023/09/30 04:28:34;;;;;;;13.32;9.95;;;;;;;13.61;100.00;102441.69;5221170;28;20061;-72
2023/09/30 04:31:07;;;;;;;12.07;9.50;;;;;;;13.55;100.00;102429.78;5220809;28;20029;-72
2023/09/30 04:33:39;;;;;;;10.65;8.57;;;;;;;13.44;100.00;102431.50;5222060;28;20032;-73
2023/09/30 04:36:13;;;;;;;14.37;9.67;;;;;;;13.51;100.00;102441.47;5221983;28;20643;-72
2023/09/30 04:38:45;;;;;;;11.95;9.18;;;;;;;13.50;100.00;102445.06;5219658;28;20517;-72
2023/09/30 04:41:18;;;;;;;15.35;9.32;;;;;;;13.47;100.00;102455.81;5221435;28;20059;-72
2023/09/30 04:43:52;;;;;;;14.57;8.93;;;;;;;13.41;100.00;102452.78;5222350;28;20053;-72
2023/09/30 04:46:24;;;;;;;12.15;9.55;;;;;;;13.38;100.00;102457.31;5224528;28;20031;-73
2023/09/30 04:48:56;;;;;;;12.73;9.55;;;;;;;13.39;100.00;102456.38;5219718;28;20036;-73
2023/09/30 04:51:28;;;;;;;10.43;8.30;;;;;;;13.34;100.00;102450.59;5221677;28;20553;-72
2023/09/30 04:54:01;;;;;;;13.77;9.70;;;;;;;13.36;100.00;102448.69;5222426;28;20045;-72
2023/09/30 04:56:36;;;;;;;11.45;9.45;;;;;;;13.39;100.00;102453.72;5222294;28;20068;-72
2023/09/30 04:59:08;;;;;;;11.55;9.63;;;;;;;13.34;100.00;102465.56;5223746;28;20406;-72
2023/09/30 05:01:40;;;;;;;13.52;10.20;;;;;;;13.40;100.00;102473.00;5222437;28;20029;-72
2023/09/30 05:04:12;;;;;;;12.75;9.90;;;;;;;13.39;100.00;102469.53;5229020;28;20812;-72
2023/09/30 05:06:44;;;;;;;13.43;9.53;;;;;;;13.39;100.00;102469.53;5225371;28;20033;-72
2023/09/30 05:09:16;;;;;;;12.50;9.98;;;;;;;13.37;100.00;102471.44;5225993;28;20025;-72
2023/09/30 05:11:48;;;;;;;13.13;10.10;;;;;;;13.38;100.00;102474.91;5225297;28;20039;-72
2023/09/30 05:14:21;;;;;;;10.98;9.43;;;;;;;13.31;100.00;102471.88;5227400;28;20386;-72
2023/09/30 05:16:52;;;;;;;11.13;9.07;;;;;;;13.30;100.00;102472.81;5222620;28;20033;-72
2023/09/30 05:19:24;;;;;;;12.40;9.65;;;;;;;13.27;100.00;102474.84;5225558;28;20069;-72
2023/09/30 05:21:56;;;;;;;12.18;9.35;;;;;;;13.31;100.00;102471.88;5225088;28;20422;-73
2023/09/30 05:24:29;;;;;;;12.82;9.77;;;;;;;13.31;100.00;102463.97;5226963;28;20036;-72
2023/09/30 05:27:01;;;;;;;12.73;9.75;;;;;;;13.33;100.00;102467.34;5230302;28;20041;-72
2023/09/30 05:29:33;;;;;;;11.85;9.40;;;;;;;13.35;100.00;102475.97;5224397;28;20230;-72
2023/09/30 05:32:06;;;;;;;14.63;10.52;;;;;;;13.31;100.00;102479.75;5224684;28;20042;-71
2023/09/30 05:34:39;;;;;;;;;;;;;;;14.11;100.00;102474.03;5225805;28;20038;-72
2023/09/30 05:37:12;;;;;;;15.10;9.98;;;;;;;13.40;100.00;102483.53;5225642;28;19924;-73
2023/09/30 05:39:44;;;;;;;;;;;;;;;14.16;100.00;102484.22;5230208;28;20046;-72
2023/09/30 05:42:17;;;;;;;11.45;9.00;;;;;;;13.42;100.00;102478.19;5226968;28;19909;-72
2023/09/30 05:44:48;;;;;;;13.93;10.38;;;;;;;13.47;100.00;102483.94;5224896;28;20034;-72
2023/09/30 05:47:20;;;;;;;12.82;10.23;;;;;;;13.44;100.00;102492.06;5223755;28;20044;-72
2023/09/30 05:49:52;;;;;;;14.75;10.65;;;;;;;13.46;100.00;102491.00;5224868;28;20404;-72
2023/09/30 05:52:24;;;;;;;14.23;10.73;;;;;;;13.51;100.00;102490.69;5225278;28;20041;-72
2023/09/30 05:54:56;;;;;;;14.70;10.80;;;;;;;13.52;100.00;102492.34;5224251;28;20030;-72
2023/09/30 05:57:28;;;;;;;15.15;10.25;;;;;;;13.57;100.00;102491.09;5226261;28;20834;-72
2023/09/30 06:00:00;;;;;;;19.57;10.23;;;;;;;13.60;100.00;102488.25;5223011;28;20029;-72
2023/09/30 06:02:32;;;;;;;15.77;10.55;;;;;;;13.61;100.00;102499.63;5224066;28;20045;-72
2023/09/30 06:05:05;;;;;;;13.07;10.10;;;;;;;13.61;100.00;102494.34;5222047;28;20373;-72
2023/09/30 06:07:37;;;;;;;17.67;11.00;;;;;;;13.65;100.00;102502.88;5222126;28;20038;-73
2023/09/30 06:10:09;;;;;;;12.63;9.15;;;;;;;13.63;100.00;102487.16;5221226;28;20418;-72
2023/09/30 06:12:41;;;;;;;14.67;9.33;;;;;;;13.71;100.00;102495.34;5220972;28;20411;-73
2023/09/30 06:15:15;;;;;;;13.88;10.07;;;;;;;13.66;100.00;102494.84;5224730;28;20312;-72
2023/09/30 06:17:49;;;;;;;16.10;10.45;;;;;;;13.63;100.00;102490.63;5220848;28;20451;-72
2023/09/30 06:20:22;;;;;;;14.02;10.75;;;;;;;13.66;100.00;102492.22;5223427;28;20025;-72
2023/09/30 06:22:54;;;;;;;14.65;10.25;;;;;;;13.66;100.00;102483.47;5223369;28;20040;-73
2023/09/30 06:25:27;;;;;;;16.42;10.10;;;;;;;13.70;100.00;102477.03;5221415;28;20438;-72
2023/09/30 06:27:59;;;;;;;;;;;;;;;14.54;100.00;102487.50;5223150;28;20037;-72
2023/09/30 06:30:33;;;;;;;12.50;9.23;;;;;;;13.85;100.00;102489.09;5221442;28;19917;-72
2023/09/30 06:33:05;;;;;;;12.25;9.82;;;;;;;13.78;100.00;102491.31;5223359;28;20025;-72
2023/09/30 06:35:41;;;;;;;13.38;9.65;;;;;;;13.84;100.00;102490.06;5220990;28;20030;-73
2023/09/30 06:38:13;;;;;;;12.35;10.38;;;;;;;13.87;100.00;102495.94;5223674;28;20204;-72
2023/09/30 06:40:48;;;;;;;14.15;10.38;;;;;;;13.90;100.00;102486.13;5224485;28;20029;-72
2023/09/30 06:43:20;;;;;;;14.63;10.38;;;;;;;13.90;100.00;102483.50;5224416;28;20042;-72
2023/09/30 06:45:52;;;;;;;15.85;10.32;;;;;;;13.95;100.00;102499.81;5224346;28;20480;-72
2023/09/30 06:48:24;;;;;;;14.48;10.95;;;;;;;13.95;100.00;102492.75;5225120;28;20489;-72
2023/09/30 06:50:58;;;;;;;14.85;10.30;;;;;;;14.06;100.00;102499.88;5223118;28;20036;-72
2023/09/30 06:53:30;;;;;;;14.93;10.45;;;;;;;14.03;100.00;102511.47;5219598;28;20034;-73
2023/09/30 06:56:06;;;;;;;16.70;11.02;;;;;;;14.14;100.00;102508.06;5222147;28;20479;-73
2023/09/30 06:58:37;;;;;;;14.10;9.98;;;;;;;14.12;100.00;102523.13;5222553;28;20040;-72
2023/09/30 07:01:15;;;;;;;15.77;9.90;;;;;;;14.29;100.00;102530.66;5221390;28;20029;-73
2023/09/30 07:03:47;;;;;;;13.80;10.55;;;;;;;14.24;100.00;102532.78;5223153;28;20041;-73
2023/09/30 07:06:26;;;;;;;16.33;10.57;;;;;;;14.45;100.00;102530.34;5223834;28;20045;-73
2023/09/30 07:08:58;;;;;;;14.85;9.75;;;;;;;14.40;100.00;102536.94;5223476;28;20029;-73
2023/09/30 07:11:33;;;;;;;15.77;10.75;;;;;;;14.49;100.00;102546.78;5222733;28;20046;-73
2023/09/30 07:14:05;;;;;;;17.02;10.30;;;;;;;14.56;100.00;102543.63;5225067;28;20554;-72
2023/09/30 07:16:37;;;;;;;16.67;10.63;;;;;;;14.63;100.00;102546.66;5223651;28;20051;-72
2023/09/30 07:19:09;;;;;;;14.27;9.80;;;;;;;14.71;100.00;102535.53;5222655;28;20152;-72
2023/09/30 07:21:41;;;;;;;16.30;10.50;;;;;;;14.82;100.00;102546.09;5222198;28;20042;-73
2023/09/30 07:24:13;;;;;;;15.23;10.00;;;;;;;14.91;100.00;102552.47;5224163;28;20033;-74
2023/09/30 07:26:45;;;;;;;15.73;10.03;;;;;;;14.98;100.00;102558.97;5224233;28;20033;-74
2023/09/30 07:29:17;;;;;;;15.52;10.02;;;;;;;15.10;100.00;102573.88;5219507;28;20049;-73
2023/09/30 07:31:50;;;;;;;18.63;11.35;;;;;;;15.20;100.00;102577.50;5218791;28;20030;-73
2023/09/30 07:34:22;;;;;;;17.13;10.63;;;;;;;15.26;100.00;102592.00;5220720;28;20037;-74
2023/09/30 07:36:55;;;;;;;17.52;10.70;;;;;;;15.36;100.00;102597.44;5220433;28;20468;-73
2023/09/30 07:39:27;;;;;;;13.00;9.48;;;;;;;15.42;100.00;102602.22;5224103;28;20048;-74
2023/09/30 07:41:59;;;;;;;16.73;10.48;;;;;;;15.46;100.00;102593.13;5224119;28;20030;-72
2023/09/30 07:44:31;;;;;;;19.08;10.77;;;;;;;15.60;100.00;102592.88;5222181;28;20037;-72
2023/09/30 07:47:06;;;;;;;19.77;10.85;;;;;;;15.73;100.00;102591.00;5222189;28;20025;-75
2023/09/30 07:49:38;;;;;;;18.65;9.48;;;;;;;15.84;100.00;102586.66;5222834;28;20040;-73
2023/09/30 07:52:10;;;;;;;18.03;10.47;;;;;;;15.97;100.00;102584.72;5222293;28;20824;-73
2023/09/30 07:54:43;;;;;;;22.33;10.48;;;;;;;16.07;100.00;102577.72;5222417;28;20030;-73
2023/09/30 07:57:15;;;;;;;15.50;10.32;;;;;;;16.21;100.00;102579.22;5222467;28;20136;-73
2023/09/30 07:59:47;;;;;;;18.27;9.27;;;;;;;16.26;100.00;102579.72;5223086;28;20029;-72
2023/09/30 08:02:18;;;;;;;19.25;10.52;;;;;;;16.36;100.00;102583.28;5220976;28;20464;-73
2023/09/30 08:04:51;;;;;;;17.65;10.00;;;;;;;16.42;100.00;102585.44;5223699;28;20043;-73
2023/09/30 08:07:22;;;;;;;16.77;9.93;;;;;;;16.51;100.00;102584.66;5221027;28;20104;-73
2023/09/30 08:09:54;;;;;;;15.75;8.80;;;;;;;16.52;100.00;102578.44;5221899;28;20610;-72
2023/09/30 08:12:26;;;;;;;16.67;9.77;;;;;;;16.59;100.00;102584.03;5222285;28;20025;-73
2023/09/30 08:14:59;;;;;;;15.43;9.20;;;;;;;16.67;100.00;102572.84;5222456;28;20045;-72
2023/09/30 08:17:31;;;;;;;18.03;9.03;;;;;;;16.78;100.00;102575.44;5221416;28;20036;-73
2023/09/30 08:20:04;;;;;;;19.90;10.70;;;;;;;16.74;100.00;102579.31;5219317;28;20295;-74
2023/09/30 08:22:36;;;;;;;19.60;10.05;;;;;;;16.81;100.00;102569.03;5222411;28;20026;-73
2023/09/30 08:25:08;;;;;;;16.92;9.48;;;;;;;16.84;100.00;102566.97;5221415;28;20471;-73
2023/09/30 08:27:40;;;;;;;13.67;9.30;;;;;;;16.92;100.00;102568.97;5222006;28;20041;-73
2023/09/30 08:30:12;;;;;;;18.38;9.68;;;;;;;16.90;100.00;102571.78;5223221;28;20398;-73
2023/09/30 08:32:44;;;;;;;16.20;9.25;;;;;;;16.94;100.00;102556.47;5220757;28;20068;-73
2023/09/30 08:35:16;;;;;;;19.92;10.10;;;;;;;17.00;100.00;102555.94;5219826;28;20045;-73
2023/09/30 08:37:48;;;;;;;17.88;10.60;;;;;;;17.17;100.00;102565.09;5219874;28;20470;-73
2023/09/30 08:40:23;;;;;;;18.35;9.55;;;;;;;17.40;100.00;102565.78;5221009;28;20701;-73
2023/09/30 08:42:55;;;;;;;13.82;8.57;;;;;;;17.36;100.00;102554.59;5219842;28;20041;-73
2023/09/30 08:45:29;;;;;;;17.25;9.55;;;;;;;17.35;100.00;102544.13;5220749;28;20044;-73
2023/09/30 08:48:05;;;;;;;15.93;8.80;;;;;;;17.53;100.00;102547.81;5218301;28;20040;-73
2023/09/30 08:50:40;;;;;;;20.95;9.80;;;;;;;17.64;100.00;102544.22;5221682;28;20033;-73
2023/09/30 08:53:16;;;;;;;13.77;8.70;;;;;;;17.62;100.00;102557.63;5221800;28;20399;-73
2023/09/30 08:55:49;;;;;;;17.77;9.00;;;;;;;17.63;100.00;102550.50;5221145;28;20048;-73
2023/09/30 08:58:27;;;;;;;14.45;8.70;;;;;;;17.90;100.00;102553.41;5222752;28;20030;-73
2023/09/30 09:00:59;;;;;;;16.90;8.93;;;;;;;17.96;100.00;102554.69;5221632;28;20045;-73
2023/09/30 09:03:31;;;;;;;14.80;8.18;;;;;;;18.06;100.00;102552.88;5220975;28;20033;-73
2023/09/30 09:06:03;;;;;;;16.50;8.23;;;;;;;18.10;100.00;102551.59;5222133;28;20025;-73
2023/09/30 09:08:35;;;;;;;15.52;9.18;;;;;;;18.11;100.00;102555.13;5221474;28;20041;-73
2023/09/30 09:11:08;;;;;;;14.27;8.10;;;;;;;18.12;100.00;102581.50;5220827;28;20041;-73
2023/09/30 09:13:55;;;;;;;16.10;9.63;;;;;;;18.43;100.00;102574.25;5221408;28;20037;-73
2023/09/30 09:16:28;;;;;;;18.05;8.07;;;;;;;18.35;100.00;102584.75;5221805;28;20046;-73
2023/09/30 09:19:12;;;;;;;11.63;7.20;;;;;;;18.60;100.00;102585.16;5218829;28;20041;-73
2023/09/30 09:22:01;;;;;;;14.45;8.07;;;;;;;18.77;100.00;102578.34;5219751;28;20030;-73
2023/09/30 09:24:35;;;;;;;11.35;6.80;;;;;;;18.78;100.00;102593.28;5221607;28;20037;-73
2023/09/30 09:27:16;;;;;;;11.27;7.00;;;;;;;18.92;100.00;102595.50;5221179;28;20045;-73
2023/09/30 09:29:48;;;;;;;12.85;7.15;;;;;;;18.82;100.00;102607.94;5218179;28;20061;-73
2023/09/30 09:32:20;;;;;;;11.35;6.60;;;;;;;18.94;100.00;102609.47;5220683;28;20026;-73
2023/09/30 09:35:00;;;;;;;14.48;7.80;;;;;;;19.22;100.00;102617.53;5221761;28;20041;-73
2023/09/30 09:37:33;;;;;;;11.00;6.88;;;;;;;19.07;100.00;102620.66;5220407;28;20042;-73
2023/09/30 09:40:07;;;;;;;12.13;7.05;;;;;;;19.22;100.00;102612.22;5220298;28;20117;-73
2023/09/30 09:42:39;;;;;;;12.50;6.53;;;;;;;19.31;100.00;102606.88;5219550;28;20526;-73
2023/09/30 09:45:11;;;;;;;10.05;6.63;;;;;;;19.46;100.00;102623.19;5220154;28;20048;-73
2023/09/30 09:47:43;;;;;;;13.88;8.15;;;;;;;19.59;100.00;102614.91;5219390;28;20042;-72
2023/09/30 09:50:16;;;;;;;13.07;7.22;;;;;;;19.71;100.00;102620.91;5221185;28;20037;-72
2023/09/30 09:52:50;;;;;;;11.85;7.25;;;;;;;19.73;100.00;102621.59;5223725;28;20476;-72
2023/09/30 09:55:23;;;;;;;13.63;7.70;;;;;;;19.88;100.00;102614.78;5225602;28;20045;-73
2023/09/30 09:57:57;;;;;;;12.10;7.95;;;;;;;19.91;100.00;102615.31;5224836;28;20038;-71
2023/09/30 10:00:31;;;;;;;13.95;7.43;;;;;;;20.14;100.00;102626.41;5224034;28;20041;-72
2023/09/30 10:03:03;;;;;;;10.75;7.38;;;;;;;20.12;100.00;102617.75;5224093;28;20378;-72
2023/09/30 10:05:37;;;;;;;10.53;7.03;;;;;;;20.23;100.00;102621.16;5221994;28;20053;-72
2023/09/30 10:08:17;;;;;;;11.02;7.43;;;;;;;20.34;100.00;102634.25;5223209;28;20042;-73
2023/09/30 10:10:49;;;;;;;10.98;7.80;;;;;;;20.12;100.00;102625.72;5225465;28;20479;-71
2023/09/30 10:13:49;;;;;;;11.38;6.88;;;;;;;20.59;100.00;102635.38;5225159;28;20033;-73
2023/09/30 10:16:36;;;;;;;10.35;6.88;;;;;;;20.60;100.00;102637.03;5224595;28;20543;-72
2023/09/30 10:19:10;;;;;;;9.27;5.95;;;;;;;20.43;100.00;102649.34;5223894;28;20025;-72
2023/09/30 10:22:17;;;;;;;8.32;6.18;;;;;;;20.77;100.00;102638.03;5224481;28;20029;-72
2023/09/30 10:24:51;;;;;;;12.13;6.90;;;;;;;20.52;100.00;102639.63;5221840;28;20054;-72
2023/09/30 10:27:28;;;;;;;14.20;6.80;;;;;;;20.75;100.00;102624.84;5225068;28;20026;-72
2023/09/30 10:30:16;;;;;;;10.63;7.00;;;;;;;20.77;100.00;102620.22;5223516;28;20049;-72
2023/09/30 10:32:51;;;;;;;11.60;6.95;;;;;;;20.82;100.00;102614.41;5223134;28;20045;-72
2023/09/30 10:35:32;;;;;;;9.63;6.20;;;;;;;20.74;100.00;102614.34;5224481;28;20052;-72
2023/09/30 10:38:24;;;;;;;10.35;6.28;;;;;;;20.70;100.00;102605.84;5222778;28;20041;-73
2023/09/30 10:40:56;;;;;;;8.80;5.53;;;;;;;20.39;100.00;102597.38;5221634;28;20030;-73
2023/09/30 10:43:30;;;;;;;8.87;4.20;;;;;;;20.21;100.00;102602.69;5225070;28;20041;-72
2023/09/30 10:46:07;;;;;;;9.10;4.53;;;;;;;20.28;100.00;102595.78;5224095;28;20040;-72
2023/09/30 10:48:39;;;;;;;8.63;4.20;;;;;;;20.28;100.00;102597.59;5221049;28;20038;-72
2023/09/30 10:51:14;;;;;;;;;;;;;;;21.21;100.00;102587.38;5222933;28;20033;-73
2023/09/30 10:53:52;;;;;;;7.03;4.15;;;;;;;20.40;100.00;102589.22;5223843;28;19929;-73
2023/09/30 10:56:32;;;;;;;8.00;4.32;;;;;;;20.29;100.00;102584.13;5220947;28;20032;-72
2023/09/30 10:59:04;;;;;;;8.95;3.92;;;;;;;20.37;100.00;102588.69;5220860;28;20363;-72
2023/09/30 11:01:36;;;;;;;8.50;4.00;;;;;;;20.54;100.00;102574.59;5223694;28;20029;-72
2023/09/30 11:04:08;;;;;;;9.07;3.30;;;;;;;20.70;100.00;102567.72;5222625;28;20037;-71
2023/09/30 11:06:42;;;;;;;8.60;3.78;;;;;;;20.56;100.00;102564.59;5222680;28;20041;-73
2023/09/30 11:09:21;;;;;;;9.32;4.30;;;;;;;20.49;100.00;102571.53;5222053;28;20029;-72
2023/09/30 11:11:54;;;;;;;7.28;3.78;;;;;;;20.28;100.00;102576.31;5219072;28;20037;-72
2023/09/30 11:14:28;;;;;;;8.50;3.77;;;;;;;20.14;100.00;102567.84;5216984;28;20069;-72
2023/09/30 11:17:04;;;;;;;8.65;3.53;;;;;;;20.18;100.00;102569.22;5222871;28;20300;-73
2023/09/30 11:19:45;;;;;;;5.85;2.80;;;;;;;20.22;100.00;102576.91;5224515;28;20427;-73
2023/09/30 11:22:17;;;;;;;8.27;4.03;;;;;;;20.43;100.00;102572.13;5222202;28;20396;-72
2023/09/30 11:24:49;;;;;;;8.30;3.20;;;;;;;20.60;99.11;102568.63;5222285;28;20029;-72
2023/09/30 11:27:27;;;;;;;7.63;3.03;;;;;;;20.89;96.20;102571.03;5224080;28;20037;-72
2023/09/30 11:30:02;;;;;;;6.07;2.88;;;;;;;20.95;93.25;102563.38;5222765;28;21104;-72
2023/09/30 11:32:34;;;;;;;5.93;2.78;;;;;;;21.08;98.43;102571.81;5225780;28;20040;-72
2023/09/30 11:35:11;;;;;;;7.97;3.53;;;;;;;21.41;94.09;102575.53;5221591;28;20053;-73
2023/09/30 11:37:45;;;;;;;8.50;3.97;;;;;;;21.41;91.09;102564.03;5225239;28;20046;-74
2023/09/30 11:40:19;;;;;;;7.68;3.17;;;;;;;21.52;93.16;102555.75;5224023;28;20029;-72